createdAt,value
2024-04-23T00:00:25.192Z,8.29
2024-04-23T00:01:27.540Z,8.29
2024-04-23T00:02:29.918Z,8.30
2024-04-23T00:03:32.356Z,8.28
2024-04-23T00:04:34.607Z,8.31
2024-04-23T00:05:36.953Z,8.30
2024-04-23T00:06:39.252Z,8.32
2024-04-23T00:07:41.565Z,8.34
2024-04-23T00:08:44.127Z,8.33
2024-04-23T00:09:46.497Z,8.34
2024-04-23T00:10:48.934Z,8.34
2024-04-23T00:11:51.769Z,8.37
2024-04-23T00:12:54.155Z,8.38
2024-04-23T00:13:56.983Z,8.37
2024-04-23T00:14:59.458Z,8.38
2024-04-23T00:16:01.731Z,8.38
2024-04-23T00:17:05.025Z,8.41
2024-04-23T00:18:07.698Z,8.43
2024-04-23T00:19:09.915Z,8.44
2024-04-23T00:20:12.494Z,8.45
2024-04-23T00:21:14.694Z,8.45
2024-04-23T00:22:16.989Z,8.47
2024-04-23T00:23:19.208Z,8.51
2024-04-23T00:24:21.506Z,8.50
2024-04-23T00:25:25.448Z,8.50
2024-04-23T00:26:28.073Z,8.52
2024-04-23T00:27:30.407Z,8.52
2024-04-23T00:28:32.692Z,8.53
2024-04-23T00:29:34.932Z,8.53
2024-04-23T00:30:37.316Z,8.57
2024-04-23T00:31:39.889Z,8.59
2024-04-23T00:32:42.054Z,8.61
2024-04-23T00:33:44.571Z,8.63
2024-04-23T00:34:47.091Z,8.66
2024-04-23T00:35:49.279Z,8.68
2024-04-23T00:36:54.159Z,8.69
2024-04-23T00:37:56.589Z,8.70
2024-04-23T00:38:58.984Z,8.72
2024-04-23T00:40:01.433Z,8.71
2024-04-23T00:41:03.828Z,8.69
2024-04-23T00:42:06.216Z,8.68
2024-04-23T00:43:08.647Z,8.68
2024-04-23T00:44:10.784Z,8.67
2024-04-23T00:45:14.705Z,8.68
2024-04-23T00:46:17.568Z,8.67
2024-04-23T00:47:21.072Z,8.68
2024-04-23T00:48:23.701Z,8.71
2024-04-23T00:49:26.260Z,8.71
2024-04-23T00:50:28.828Z,8.72
2024-04-23T00:51:31.352Z,8.74
2024-04-23T00:52:33.930Z,8.75
2024-04-23T00:53:36.162Z,8.72
2024-04-23T00:54:38.520Z,8.70
2024-04-23T00:55:41.189Z,8.67
2024-04-23T00:56:44.042Z,8.66
2024-04-23T00:57:46.172Z,8.64
2024-04-23T00:58:48.867Z,8.62
2024-04-23T00:59:51.270Z,8.62
2024-04-23T01:00:54.235Z,8.61
2024-04-23T01:01:56.978Z,8.61
2024-04-23T01:02:59.944Z,8.63
2024-04-23T01:04:03.506Z,8.64
2024-04-23T01:05:05.980Z,8.67
2024-04-23T01:06:10.961Z,8.71
2024-04-23T01:07:13.262Z,8.73
2024-04-23T01:08:15.629Z,8.75
2024-04-23T01:09:18.720Z,8.76
2024-04-23T01:10:21.254Z,8.81
2024-04-23T01:11:23.544Z,8.83
2024-04-23T01:12:25.881Z,8.81
2024-04-23T01:13:28.286Z,8.80
2024-04-23T01:14:31.442Z,8.81
2024-04-23T01:15:34.836Z,8.81
2024-04-23T01:16:42.584Z,8.81
2024-04-23T01:17:46.224Z,8.80
2024-04-23T01:18:48.836Z,8.80
2024-04-23T01:19:54.803Z,8.77
2024-04-23T01:20:59.246Z,8.76
2024-04-23T01:22:10.152Z,8.75
2024-04-23T01:23:18.304Z,8.75
2024-04-23T01:24:23.664Z,8.78
2024-04-23T01:25:26.942Z,8.79
2024-04-23T01:26:29.931Z,8.81
2024-04-23T01:27:33.164Z,8.82
2024-04-23T01:28:37.186Z,8.82
2024-04-23T01:29:40.206Z,8.83
2024-04-23T01:30:43.913Z,8.85
2024-04-23T01:31:46.830Z,8.86
2024-04-23T01:32:49.878Z,8.86
2024-04-23T01:33:54.219Z,8.85
2024-04-23T01:34:57.128Z,8.85
2024-04-23T01:35:59.599Z,8.87
2024-04-23T01:37:03.539Z,8.88
2024-04-23T01:38:06.159Z,8.89
2024-04-23T01:39:08.652Z,8.91
2024-04-23T01:40:11.764Z,8.91
2024-04-23T01:41:14.248Z,8.93
2024-04-23T01:42:17.103Z,8.94
2024-04-23T01:43:19.583Z,8.96
2024-04-23T01:44:21.875Z,8.99
2024-04-23T01:45:24.543Z,9.02
2024-04-23T01:46:27.414Z,9.03
2024-04-23T01:47:30.021Z,9.04
2024-04-23T01:48:32.752Z,9.07
2024-04-23T01:49:35.417Z,9.07
2024-04-23T01:50:37.800Z,9.10
2024-04-23T01:51:40.400Z,9.10
2024-04-23T01:52:43.509Z,9.12
2024-04-23T01:53:45.692Z,9.12
2024-04-23T01:54:48.520Z,9.14
2024-04-23T01:55:50.694Z,9.15
2024-04-23T01:56:53.456Z,9.12
2024-04-23T01:57:55.985Z,9.10
2024-04-23T01:58:58.299Z,9.10
2024-04-23T02:00:04.191Z,9.09
2024-04-23T02:01:07.350Z,9.08
2024-04-23T02:02:09.824Z,9.07
2024-04-23T02:03:13.734Z,9.05
2024-04-23T02:04:18.686Z,9.03
2024-04-23T02:05:21.663Z,9.02
2024-04-23T02:06:24.686Z,8.98
2024-04-23T02:07:27.359Z,8.96
2024-04-23T02:08:29.721Z,8.94
2024-04-23T02:09:33.309Z,8.94
2024-04-23T02:10:38.560Z,8.95
2024-04-23T02:11:41.545Z,8.96
2024-04-23T02:12:44.020Z,8.96
2024-04-23T02:13:46.459Z,8.95
2024-04-23T02:14:48.656Z,8.93
2024-04-23T02:15:50.825Z,8.96
2024-04-23T02:16:53.398Z,8.96
2024-04-23T02:17:56.134Z,8.97
2024-04-23T02:18:58.328Z,8.99
2024-04-23T02:20:02.300Z,9.01
2024-04-23T02:21:05.282Z,9.01
2024-04-23T02:22:07.589Z,8.99
2024-04-23T02:23:09.846Z,8.98
2024-04-23T02:24:12.225Z,8.93
2024-04-23T02:25:14.501Z,8.86
2024-04-23T02:26:16.754Z,8.84
2024-04-23T02:27:19.269Z,8.80
2024-04-23T02:28:21.561Z,8.80
2024-04-23T02:29:23.762Z,8.80
2024-04-23T02:30:25.803Z,8.81
2024-04-23T02:31:28.310Z,8.80
2024-04-23T02:32:30.615Z,8.80
2024-04-23T02:33:33.010Z,8.78
2024-04-23T02:34:35.401Z,8.78
2024-04-23T02:35:41.490Z,8.78
2024-04-23T02:36:43.745Z,8.79
2024-04-23T02:37:46.019Z,8.80
2024-04-23T02:38:48.393Z,8.79
2024-04-23T02:39:50.639Z,8.81
2024-04-23T02:40:53.095Z,8.78
2024-04-23T02:41:55.459Z,8.76
2024-04-23T02:42:57.756Z,8.75
2024-04-23T02:44:00.138Z,8.73
2024-04-23T02:45:02.639Z,8.74
2024-04-23T02:46:06.026Z,8.74
2024-04-23T02:47:08.301Z,8.74
2024-04-23T02:48:10.748Z,8.76
2024-04-23T02:49:13.239Z,8.75
2024-04-23T02:50:15.535Z,8.77
2024-04-23T02:51:17.622Z,8.76
2024-04-23T02:52:19.881Z,8.76
2024-04-23T02:53:21.946Z,8.79
2024-04-23T02:54:24.312Z,8.79
2024-04-23T02:55:27.848Z,8.80
2024-04-23T02:56:30.061Z,8.79
2024-04-23T02:57:32.405Z,8.77
2024-04-23T02:58:34.782Z,8.77
2024-04-23T02:59:37.061Z,8.79
2024-04-23T03:00:39.326Z,8.81
2024-04-23T03:01:41.579Z,8.83
2024-04-23T03:02:43.864Z,8.86
2024-04-23T03:03:46.369Z,8.86
2024-04-23T03:04:48.780Z,8.87
2024-04-23T03:05:51.338Z,8.89
2024-04-23T03:06:53.690Z,8.92
2024-04-23T03:07:56.000Z,8.92
2024-04-23T03:08:58.277Z,8.96
2024-04-23T03:10:00.665Z,8.98
2024-04-23T03:11:03.270Z,8.99
2024-04-23T03:12:05.929Z,9.00
2024-04-23T03:13:08.518Z,9.02
2024-04-23T03:14:10.699Z,9.04
2024-04-23T03:15:12.987Z,9.04
2024-04-23T03:16:15.921Z,9.04
2024-04-23T03:17:18.137Z,9.04
2024-04-23T03:18:20.373Z,9.00
2024-04-23T03:19:22.749Z,8.99
2024-04-23T03:20:25.218Z,8.98
2024-04-23T03:21:27.418Z,8.95
2024-04-23T03:22:29.691Z,8.92
2024-04-23T03:23:31.905Z,8.91
2024-04-23T03:24:34.242Z,8.90
2024-04-23T03:25:38.729Z,8.87
2024-04-23T03:26:40.817Z,8.88
2024-04-23T03:27:42.994Z,8.87
2024-04-23T03:28:45.370Z,8.85
2024-04-23T03:29:47.660Z,8.86
2024-04-23T03:30:50.364Z,8.86
2024-04-23T03:32:03.683Z,8.87
2024-04-23T03:33:06.397Z,8.87
2024-04-23T03:34:08.701Z,8.86
2024-04-23T03:35:11.384Z,8.86
2024-04-23T03:36:17.661Z,8.86
2024-04-23T03:37:18.616Z,8.84
2024-04-23T03:38:20.703Z,8.86
2024-04-23T03:39:22.752Z,8.86
2024-04-23T03:40:25.415Z,8.90
2024-04-23T03:41:28.304Z,8.89
2024-04-23T03:42:30.727Z,8.86
2024-04-23T03:43:32.961Z,8.81
2024-04-23T03:44:37.609Z,8.76
2024-04-23T03:45:39.320Z,8.73
2024-04-23T03:46:41.773Z,8.74
2024-04-23T03:47:44.161Z,8.73
2024-04-23T03:48:46.418Z,8.72
2024-04-23T03:49:48.744Z,8.73
2024-04-23T03:50:51.489Z,8.75
2024-04-23T03:51:54.062Z,8.77
2024-04-23T03:52:56.393Z,8.75
2024-04-23T03:53:58.617Z,8.74
2024-04-23T03:55:00.841Z,8.70
2024-04-23T03:56:03.492Z,8.70
2024-04-23T03:57:05.644Z,8.71
2024-04-23T03:58:08.033Z,8.72
2024-04-23T03:59:10.158Z,8.75
2024-04-23T04:00:13.299Z,8.75
2024-04-23T04:01:15.480Z,8.75
2024-04-23T04:02:17.961Z,8.73
2024-04-23T04:03:20.332Z,8.70
2024-04-23T04:04:23.126Z,8.67
2024-04-23T04:05:26.153Z,8.68
2024-04-23T04:06:28.456Z,8.67
2024-04-23T04:07:30.822Z,8.65
2024-04-23T04:08:36.394Z,8.61
2024-04-23T04:09:38.627Z,8.61
2024-04-23T04:10:41.181Z,8.59
2024-04-23T04:11:43.752Z,8.65
2024-04-23T04:12:46.258Z,8.64
2024-04-23T04:13:48.568Z,8.58
2024-04-23T04:14:50.844Z,8.52
2024-04-23T04:15:53.082Z,8.45
2024-04-23T04:17:09.200Z,8.42
2024-04-23T04:18:11.690Z,8.38
2024-04-23T04:19:13.968Z,8.34
2024-04-23T04:20:16.300Z,8.28
2024-04-23T04:21:18.866Z,8.25
2024-04-23T04:22:21.124Z,8.27
2024-04-23T04:23:23.668Z,8.30
2024-04-23T04:24:25.968Z,8.33
2024-04-23T04:25:28.647Z,8.33
2024-04-23T04:26:31.382Z,8.36
2024-04-23T04:27:33.704Z,8.37
2024-04-23T04:28:36.006Z,8.37
2024-04-23T04:29:38.212Z,8.40
2024-04-23T04:30:40.925Z,8.43
2024-04-23T04:31:43.331Z,8.43
2024-04-23T04:32:45.971Z,8.42
2024-04-23T04:33:48.432Z,8.42
2024-04-23T04:34:50.753Z,8.38
2024-04-23T04:35:53.466Z,8.37
2024-04-23T04:36:56.323Z,8.36
2024-04-23T04:37:58.525Z,8.32
2024-04-23T04:39:01.192Z,8.28
2024-04-23T04:40:04.020Z,8.26
2024-04-23T04:41:06.556Z,8.23
2024-04-23T04:42:08.861Z,8.19
2024-04-23T04:43:11.316Z,8.15
2024-04-23T04:44:13.577Z,8.16
2024-04-23T04:45:15.876Z,8.17
2024-04-23T04:46:18.233Z,8.21
2024-04-23T04:47:20.523Z,8.24
2024-04-23T04:48:22.904Z,8.27
2024-04-23T04:49:25.594Z,8.28
2024-04-23T04:50:28.610Z,8.29
2024-04-23T04:51:30.870Z,8.35
2024-04-23T04:52:33.127Z,8.37
2024-04-23T04:53:35.595Z,8.38
2024-04-23T04:54:37.787Z,8.37
2024-04-23T04:55:40.200Z,8.39
2024-04-23T04:56:42.624Z,8.41
2024-04-23T04:57:45.002Z,8.43
2024-04-23T04:58:47.395Z,8.43
2024-04-23T04:59:50.078Z,8.44
2024-04-23T05:00:52.481Z,8.43
2024-04-23T05:01:54.788Z,8.42
2024-04-23T05:02:57.085Z,8.42
2024-04-23T05:03:59.304Z,8.45
2024-04-23T05:05:01.800Z,8.47
2024-04-23T05:06:04.800Z,8.50
2024-04-23T05:07:07.015Z,8.56
2024-04-23T05:08:09.736Z,8.59
2024-04-23T05:09:12.624Z,8.61
2024-04-23T05:10:15.518Z,8.60
2024-04-23T05:11:17.941Z,8.60
2024-04-23T05:12:20.215Z,8.61
2024-04-23T05:13:22.558Z,8.57
2024-04-23T05:14:24.681Z,8.52
2024-04-23T05:15:27.157Z,8.47
2024-04-23T05:16:29.845Z,8.44
2024-04-23T05:17:32.400Z,8.43
2024-04-23T05:18:37.036Z,8.42
2024-04-23T05:19:38.933Z,8.44
2024-04-23T05:20:41.576Z,8.50
2024-04-23T05:21:44.173Z,8.55
2024-04-23T05:22:46.988Z,8.64
2024-04-23T05:23:49.501Z,8.69
2024-04-23T05:24:52.047Z,8.77
2024-04-23T05:25:54.291Z,8.82
2024-04-23T05:26:56.982Z,8.83
2024-04-23T05:27:59.256Z,8.81
2024-04-23T05:29:01.507Z,8.82
2024-04-23T05:30:04.647Z,8.84
2024-04-23T05:31:06.943Z,8.87
2024-04-23T05:32:11.743Z,8.91
2024-04-23T05:33:14.257Z,8.90
2024-04-23T05:34:16.606Z,8.90
2024-04-23T05:35:19.210Z,8.90
2024-04-23T05:36:21.808Z,8.89
2024-04-23T05:37:24.134Z,8.89
2024-04-23T05:38:26.348Z,8.90
2024-04-23T05:39:28.871Z,8.95
2024-04-23T05:40:31.594Z,9.01
2024-04-23T05:41:34.300Z,9.04
2024-04-23T05:42:36.492Z,9.07
2024-04-23T05:43:38.872Z,9.09
2024-04-23T05:44:41.154Z,9.11
2024-04-23T05:45:43.583Z,9.18
2024-04-23T05:46:46.107Z,9.23
2024-04-23T05:48:25.746Z,9.29
2024-04-23T05:50:27.329Z,9.32
2024-04-23T05:52:29.938Z,9.46
2024-04-23T05:54:23.282Z,9.55
2024-04-23T05:55:46.662Z,9.63
2024-04-23T05:56:48.568Z,9.69
2024-04-23T05:57:51.232Z,9.73
2024-04-23T05:58:53.718Z,9.75
2024-04-23T05:59:55.942Z,9.78
2024-04-23T06:01:00.260Z,9.79
2024-04-23T06:02:02.511Z,9.82
2024-04-23T06:03:08.004Z,9.88
2024-04-23T06:04:10.535Z,9.95
2024-04-23T06:05:13.401Z,10.02
2024-04-23T06:06:15.978Z,10.09
2024-04-23T06:07:20.054Z,10.10
2024-04-23T06:08:22.471Z,10.13
2024-04-23T06:09:24.825Z,10.12
2024-04-23T06:10:27.282Z,10.11
2024-04-23T06:11:30.032Z,10.07
2024-04-23T06:12:32.724Z,10.07
2024-04-23T06:13:35.163Z,10.08
2024-04-23T06:14:37.353Z,10.10
2024-04-23T06:15:39.725Z,10.08
2024-04-23T06:16:42.136Z,10.08
2024-04-23T06:17:47.977Z,10.10
2024-04-23T06:18:48.908Z,10.13
2024-04-23T06:19:52.217Z,10.12
2024-04-23T06:20:55.136Z,10.15
2024-04-23T06:21:57.401Z,10.18
2024-04-23T06:22:59.763Z,10.21
2024-04-23T06:24:02.071Z,10.25
2024-04-23T06:25:07.430Z,10.27
2024-04-23T06:26:10.466Z,10.31
2024-04-23T06:27:12.937Z,10.36
2024-04-23T06:28:15.252Z,10.40
2024-04-23T06:29:17.450Z,10.44
2024-04-23T06:30:20.268Z,10.48
2024-04-23T06:31:22.513Z,10.52
2024-04-23T06:32:25.083Z,10.56
2024-04-23T06:33:27.743Z,10.62
2024-04-23T06:34:29.914Z,10.62
2024-04-23T06:35:32.227Z,10.67
2024-04-23T06:36:35.051Z,10.74
2024-04-23T06:37:37.696Z,10.79
2024-04-23T06:38:39.976Z,10.84
2024-04-23T06:39:43.592Z,10.85
2024-04-23T06:40:46.706Z,10.88
2024-04-23T06:41:49.010Z,10.91
2024-04-23T06:42:51.334Z,10.93
2024-04-23T06:43:53.641Z,10.92
2024-04-23T06:44:55.885Z,10.92
2024-04-23T06:46:00.067Z,10.95
2024-04-23T06:47:02.471Z,10.95
2024-04-23T06:48:06.315Z,10.98
2024-04-23T06:49:09.342Z,11.02
2024-04-23T06:50:12.135Z,11.07
2024-04-23T06:51:14.413Z,11.10
2024-04-23T06:52:16.990Z,11.16
2024-04-23T06:53:19.423Z,11.19
2024-04-23T06:54:21.869Z,11.20
2024-04-23T06:55:25.920Z,11.24
2024-04-23T06:56:28.454Z,11.26
2024-04-23T06:57:31.221Z,11.30
2024-04-23T06:58:33.399Z,11.29
2024-04-23T06:59:35.589Z,11.34
2024-04-23T07:00:38.033Z,11.37
2024-04-23T07:01:40.475Z,11.42
2024-04-23T07:02:42.809Z,11.47
2024-04-23T07:03:45.143Z,11.51
2024-04-23T07:04:47.482Z,11.55
2024-04-23T07:05:51.435Z,11.56
2024-04-23T07:06:54.641Z,11.57
2024-04-23T07:07:56.890Z,11.58
2024-04-23T07:08:59.232Z,11.61
2024-04-23T07:10:01.622Z,11.66
2024-04-23T07:11:04.563Z,11.68
2024-04-23T07:12:07.391Z,11.74
2024-04-23T07:13:09.455Z,11.74
2024-04-23T07:14:12.039Z,11.83
2024-04-23T07:15:16.129Z,11.88
2024-04-23T07:16:18.949Z,11.96
2024-04-23T07:17:21.200Z,12.03
2024-04-23T07:18:23.792Z,12.08
2024-04-23T07:19:26.281Z,12.11
2024-04-23T07:20:29.165Z,12.16
2024-04-23T07:21:31.711Z,12.23
2024-04-23T07:22:34.205Z,12.31
2024-04-23T07:23:36.649Z,12.44
2024-04-23T07:24:38.927Z,12.56
2024-04-23T07:25:41.265Z,12.64
2024-04-23T07:26:43.975Z,12.66
2024-04-23T07:27:53.082Z,12.73
2024-04-23T07:28:58.108Z,12.83
2024-04-23T07:30:01.185Z,12.91
2024-04-23T07:31:03.638Z,13.02
2024-04-23T07:32:07.529Z,13.19
2024-04-23T07:33:20.619Z,13.33
2024-04-23T07:34:23.417Z,13.44
2024-04-23T07:35:27.102Z,13.47
2024-04-23T07:36:30.323Z,13.55
2024-04-23T07:37:36.463Z,13.60
2024-04-23T07:38:40.184Z,13.65
2024-04-23T07:39:44.649Z,13.68
2024-04-23T07:40:49.154Z,13.79
2024-04-23T07:41:53.655Z,13.93
2024-04-23T07:42:56.125Z,14.01
2024-04-23T07:43:58.617Z,14.01
2024-04-23T07:45:01.081Z,14.03
2024-04-23T07:46:04.295Z,14.08
2024-04-23T07:47:08.176Z,14.12
2024-04-23T07:48:14.004Z,14.16
2024-04-23T07:49:18.409Z,14.16
2024-04-23T07:50:22.063Z,14.27
2024-04-23T07:51:25.789Z,14.32
2024-04-23T07:52:31.722Z,14.35
2024-04-23T07:53:34.096Z,14.34
2024-04-23T07:54:37.367Z,14.29
2024-04-23T07:55:40.154Z,14.28
2024-04-23T07:56:44.699Z,14.28
2024-04-23T07:57:47.941Z,14.29
2024-04-23T07:58:50.725Z,14.25
2024-04-23T07:59:53.325Z,14.18
2024-04-23T08:00:56.242Z,14.19
2024-04-23T08:01:58.725Z,14.24
2024-04-23T08:03:03.162Z,14.24
2024-04-23T08:04:07.395Z,14.27
2024-04-23T08:05:11.721Z,14.40
2024-04-23T08:06:14.538Z,14.50
2024-04-23T08:07:16.878Z,14.56
2024-04-23T08:08:21.662Z,14.56
2024-04-23T08:09:24.274Z,14.57
2024-04-23T08:10:28.283Z,14.54
2024-04-23T08:11:30.707Z,14.53
2024-04-23T08:12:33.506Z,14.49
2024-04-23T08:13:35.948Z,14.48
2024-04-23T08:14:38.409Z,14.42
2024-04-23T08:15:41.186Z,14.41
2024-04-23T08:16:47.186Z,14.42
2024-04-23T08:17:49.734Z,14.45
2024-04-23T08:18:54.121Z,14.47
2024-04-23T08:19:56.774Z,14.49
2024-04-23T08:21:01.910Z,14.51
2024-04-23T08:22:04.777Z,14.56
2024-04-23T08:23:09.135Z,14.58
2024-04-23T08:24:11.821Z,14.53
2024-04-23T08:25:16.637Z,14.57
2024-04-23T08:26:19.416Z,14.62
2024-04-23T08:27:21.890Z,14.69
2024-04-23T08:28:24.452Z,14.76
2024-04-23T08:29:28.185Z,14.82
2024-04-23T08:30:30.741Z,14.90
2024-04-23T08:31:34.682Z,15.03
2024-04-23T08:32:37.252Z,15.17
2024-04-23T08:33:42.967Z,15.31
2024-04-23T08:34:45.487Z,15.35
2024-04-23T08:35:48.905Z,15.43
2024-04-23T08:36:52.386Z,15.40
2024-04-23T08:37:55.056Z,15.48
2024-04-23T08:38:58.919Z,15.46
2024-04-23T08:40:01.921Z,15.47
2024-04-23T08:41:06.513Z,15.47
2024-04-23T08:42:12.493Z,15.49
2024-04-23T08:43:22.546Z,15.61
2024-04-23T08:44:27.026Z,15.75
2024-04-23T08:45:33.499Z,15.86
2024-04-23T08:46:36.279Z,15.98
2024-04-23T08:47:39.833Z,16.08
2024-04-23T08:48:43.970Z,16.22
2024-04-23T08:49:48.088Z,16.39
2024-04-23T08:50:52.846Z,16.52
2024-04-23T08:51:59.539Z,16.59
2024-04-23T08:53:04.143Z,16.49
2024-04-23T08:54:06.853Z,16.55
2024-04-23T08:55:09.738Z,16.56
2024-04-23T08:56:19.902Z,16.55
2024-04-23T08:57:22.648Z,16.51
2024-04-23T08:58:27.827Z,16.48
2024-04-23T08:59:32.375Z,16.43
2024-04-23T09:00:48.748Z,16.45
2024-04-23T09:01:53.536Z,16.46
2024-04-23T09:02:58.203Z,16.52
2024-04-23T09:04:03.153Z,16.62
2024-04-23T09:05:06.142Z,16.63
2024-04-23T09:06:09.267Z,16.62
2024-04-23T09:07:24.400Z,16.57
2024-04-23T09:08:19.772Z,16.48
2024-04-23T09:09:41.346Z,16.38
2024-04-23T09:10:46.029Z,16.18
2024-04-23T09:11:52.745Z,15.99
2024-04-23T09:12:57.496Z,15.86
2024-04-23T09:14:21.961Z,15.80
2024-04-23T09:15:30.993Z,15.76
2024-04-23T09:16:41.237Z,15.69
2024-04-23T09:17:46.414Z,15.62
2024-04-23T09:18:49.368Z,15.51
2024-04-23T09:19:54.705Z,15.38
2024-04-23T09:20:58.249Z,15.31
2024-04-23T09:22:09.993Z,15.27
2024-04-23T09:23:14.699Z,15.30
2024-04-23T09:24:26.874Z,15.31
2024-04-23T09:25:37.040Z,15.32
2024-04-23T09:26:40.393Z,15.31
2024-04-23T09:27:42.993Z,15.32
2024-04-23T09:29:06.336Z,15.32
2024-04-23T09:30:10.123Z,15.31
2024-04-23T09:31:13.549Z,15.36
2024-04-23T09:32:17.411Z,15.39
2024-04-23T09:33:24.560Z,15.43
2024-04-23T09:34:33.420Z,15.48
2024-04-23T09:35:33.221Z,15.60
2024-04-23T09:36:35.831Z,15.70
2024-04-23T09:37:38.155Z,15.72
2024-04-23T09:38:41.460Z,15.69
2024-04-23T09:39:46.005Z,15.70
2024-04-23T09:40:48.231Z,15.73
2024-04-23T09:41:57.297Z,15.81
2024-04-23T09:42:59.987Z,15.94
2024-04-23T09:44:02.345Z,16.07
2024-04-23T09:45:06.222Z,16.12
2024-04-23T09:46:11.170Z,16.17
2024-04-23T09:47:13.701Z,16.28
2024-04-23T09:48:16.391Z,16.36
2024-04-23T09:49:19.448Z,16.43
2024-04-23T09:50:29.566Z,16.51
2024-04-23T09:51:33.770Z,16.65
2024-04-23T09:52:36.149Z,16.75
2024-04-23T09:53:43.071Z,16.79
2024-04-23T09:54:45.692Z,16.82
2024-04-23T09:55:55.883Z,16.97
2024-04-23T09:57:02.556Z,17.02
2024-04-23T09:58:04.985Z,17.05
2024-04-23T09:59:13.157Z,17.06
2024-04-23T10:00:16.106Z,17.02
2024-04-23T10:01:21.375Z,16.94
2024-04-23T10:02:28.780Z,16.93
2024-04-23T10:03:34.396Z,16.87
2024-04-23T10:04:38.534Z,16.85
2024-04-23T10:05:43.041Z,16.78
2024-04-23T10:06:47.830Z,16.70
2024-04-23T10:08:13.789Z,16.61
2024-04-23T10:09:18.650Z,16.50
2024-04-23T10:10:24.329Z,16.33
2024-04-23T10:11:28.755Z,16.22
2024-04-23T10:12:32.063Z,16.17
2024-04-23T10:13:37.302Z,16.12
2024-04-23T10:14:52.258Z,16.07
2024-04-23T10:15:56.860Z,16.05
2024-04-23T10:17:18.048Z,16.02
2024-04-23T10:18:26.544Z,15.98
2024-04-23T10:19:30.083Z,15.95
2024-04-23T10:20:36.377Z,16.03
2024-04-23T10:21:42.110Z,16.11
2024-04-23T10:22:45.243Z,16.19
2024-04-23T10:23:47.975Z,16.18
2024-04-23T10:24:51.105Z,16.16
2024-04-23T10:25:55.299Z,16.19
2024-04-23T10:26:57.748Z,16.25
2024-04-23T10:28:00.165Z,16.29
2024-04-23T10:29:02.480Z,16.33
2024-04-23T10:30:06.235Z,16.36
2024-04-23T10:31:10.325Z,16.36
2024-04-23T10:32:13.980Z,16.41
2024-04-23T10:33:17.849Z,16.43
2024-04-23T10:34:21.496Z,16.51
2024-04-23T10:35:24.322Z,16.56
2024-04-23T10:36:27.825Z,16.61
2024-04-23T10:37:35.220Z,16.61
2024-04-23T10:38:37.720Z,16.63
2024-04-23T10:39:40.984Z,16.57
2024-04-23T10:40:52.542Z,16.51
2024-04-23T10:41:56.554Z,16.47
2024-04-23T10:42:59.025Z,16.49
2024-04-23T10:44:02.570Z,16.49
2024-04-23T10:45:06.892Z,16.46
2024-04-23T10:46:12.005Z,16.43
2024-04-23T10:47:16.324Z,16.45
2024-04-23T10:48:26.785Z,16.44
2024-04-23T10:49:29.354Z,16.43
2024-04-23T10:50:32.046Z,16.41
2024-04-23T10:51:34.868Z,16.39
2024-04-23T10:52:37.195Z,16.39
2024-04-23T10:53:39.564Z,16.39
2024-04-23T10:54:41.891Z,16.36
2024-04-23T10:55:49.447Z,16.30
2024-04-23T10:57:02.601Z,16.24
2024-04-23T10:58:07.779Z,16.21
2024-04-23T10:59:14.199Z,16.20
2024-04-23T11:00:16.900Z,16.28
2024-04-23T11:01:24.317Z,16.38
2024-04-23T11:02:26.921Z,16.47
2024-04-23T11:03:30.823Z,16.51
2024-04-23T11:04:47.106Z,16.53
2024-04-23T11:05:50.064Z,16.59
2024-04-23T11:06:56.579Z,16.67
2024-04-23T11:08:06.362Z,16.76
2024-04-23T11:09:18.789Z,16.90
2024-04-23T11:10:21.179Z,17.07
2024-04-23T11:11:23.867Z,17.27
2024-04-23T11:12:27.466Z,17.30
2024-04-23T11:13:37.418Z,17.30
2024-04-23T11:14:39.665Z,17.26
2024-04-23T11:15:42.140Z,17.23
2024-04-23T11:16:44.774Z,17.16
2024-04-23T11:17:47.244Z,17.09
2024-04-23T11:18:51.618Z,17.07
2024-04-23T11:19:54.618Z,17.01
2024-04-23T11:20:58.872Z,16.98
2024-04-23T11:22:02.060Z,16.90
2024-04-23T11:23:06.236Z,16.86
2024-04-23T11:24:11.217Z,16.79
2024-04-23T11:25:17.379Z,16.72
2024-04-23T11:26:23.152Z,16.65
2024-04-23T11:27:25.635Z,16.62
2024-04-23T11:28:28.009Z,16.63
2024-04-23T11:29:30.452Z,16.67
2024-04-23T11:30:33.121Z,16.69
2024-04-23T11:31:35.711Z,16.69
2024-04-23T11:32:38.483Z,16.68
2024-04-23T11:33:42.264Z,16.67
2024-04-23T11:34:46.321Z,16.62
2024-04-23T11:35:52.963Z,16.71
2024-04-23T11:36:55.204Z,16.82
2024-04-23T11:37:58.039Z,16.96
2024-04-23T11:39:00.524Z,17.09
2024-04-23T11:40:03.524Z,17.23
2024-04-23T11:41:07.105Z,17.29
2024-04-23T11:42:12.369Z,17.24
2024-04-23T11:43:18.789Z,17.21
2024-04-23T11:44:24.545Z,17.16
2024-04-23T11:45:26.856Z,17.06
2024-04-23T11:46:30.185Z,17.03
2024-04-23T11:47:32.739Z,17.02
2024-04-23T11:48:35.671Z,16.98
2024-04-23T11:49:38.613Z,16.94
2024-04-23T11:50:42.184Z,16.85
2024-04-23T11:51:44.704Z,16.83
2024-04-23T11:52:48.028Z,16.81
2024-04-23T11:53:50.508Z,16.77
2024-04-23T11:54:54.067Z,16.74
2024-04-23T11:55:57.911Z,16.75
2024-04-23T11:57:00.448Z,16.71
2024-04-23T11:58:02.826Z,16.71
2024-04-23T11:59:05.228Z,16.71
2024-04-23T12:00:08.627Z,16.70
2024-04-23T12:01:11.029Z,16.74
2024-04-23T12:02:16.511Z,16.74
2024-04-23T12:03:19.354Z,16.77
2024-04-23T12:04:22.275Z,16.80
2024-04-23T12:05:26.161Z,16.85
2024-04-23T12:06:29.220Z,16.90
2024-04-23T12:07:31.876Z,16.89
2024-04-23T12:08:34.556Z,16.93
2024-04-23T12:09:37.251Z,16.98
2024-04-23T12:10:41.913Z,17.05
2024-04-23T12:11:56.086Z,17.08
2024-04-23T12:12:58.606Z,17.18
2024-04-23T12:14:00.734Z,17.17
2024-04-23T12:15:03.913Z,17.16
2024-04-23T12:16:06.963Z,17.15
2024-04-23T12:17:09.187Z,17.21
2024-04-23T12:18:11.768Z,17.19
2024-04-23T12:19:14.418Z,17.23
2024-04-23T12:20:17.459Z,17.22
2024-04-23T12:21:19.667Z,17.24
2024-04-23T12:22:21.988Z,17.25
2024-04-23T12:23:24.739Z,17.23
2024-04-23T12:24:29.392Z,17.25
2024-04-23T12:25:34.064Z,17.28
2024-04-23T12:26:36.768Z,17.31
2024-04-23T12:27:41.527Z,17.34
2024-04-23T12:28:44.313Z,17.36
2024-04-23T12:29:46.511Z,17.41
2024-04-23T12:30:49.278Z,17.42
2024-04-23T12:32:00.190Z,17.40
2024-04-23T12:33:13.494Z,17.38
2024-04-23T12:34:18.578Z,17.43
2024-04-23T12:35:21.040Z,17.44
2024-04-23T12:36:24.108Z,17.56
2024-04-23T12:37:26.468Z,17.69
2024-04-23T12:38:28.637Z,17.82
2024-04-23T12:39:31.018Z,17.95
2024-04-23T12:40:33.795Z,18.12
2024-04-23T12:41:36.150Z,18.30
2024-04-23T12:42:42.404Z,18.48
2024-04-23T12:43:43.809Z,18.67
2024-04-23T12:44:46.158Z,18.83
2024-04-23T12:45:48.574Z,18.99
2024-04-23T12:46:50.822Z,19.07
2024-04-23T12:47:53.209Z,19.09
2024-04-23T12:48:58.099Z,19.06
2024-04-23T12:50:02.914Z,19.03
2024-04-23T12:51:07.379Z,18.93
2024-04-23T12:52:09.909Z,18.92
2024-04-23T12:53:12.390Z,18.87
2024-04-23T12:54:15.471Z,18.83
2024-04-23T12:55:19.901Z,18.61
2024-04-23T12:56:23.923Z,18.44
2024-04-23T12:57:26.480Z,18.36
2024-04-23T12:58:28.965Z,18.41
2024-04-23T12:59:31.409Z,18.43
2024-04-23T13:00:33.861Z,18.44
2024-04-23T13:01:42.427Z,18.48
2024-04-23T13:02:42.971Z,18.51
2024-04-23T13:03:45.433Z,18.53
2024-04-23T13:04:47.944Z,18.52
2024-04-23T13:05:50.398Z,18.46
2024-04-23T13:06:52.955Z,18.42
2024-04-23T13:07:55.286Z,18.30
2024-04-23T13:08:57.793Z,18.22
2024-04-23T13:09:59.995Z,18.12
2024-04-23T13:11:02.315Z,18.08
2024-04-23T13:12:06.982Z,18.07
2024-04-23T13:13:09.441Z,18.03
2024-04-23T13:14:11.726Z,17.96
2024-04-23T13:15:14.214Z,17.88
2024-04-23T13:16:16.713Z,17.82
2024-04-23T13:17:18.976Z,17.76
2024-04-23T13:18:21.339Z,17.70
2024-04-23T13:19:23.615Z,17.66
2024-04-23T13:20:26.224Z,17.61
2024-04-23T13:21:28.520Z,17.54
2024-04-23T13:22:30.844Z,17.48
2024-04-23T13:23:33.057Z,17.43
2024-04-23T13:24:35.181Z,17.40
2024-04-23T13:25:37.928Z,17.41
2024-04-23T13:26:40.369Z,17.42
2024-04-23T13:27:43.128Z,17.43
2024-04-23T13:28:45.437Z,17.41
2024-04-23T13:29:48.118Z,17.46
2024-04-23T13:30:54.789Z,17.49
2024-04-23T13:31:57.766Z,17.45
2024-04-23T13:33:00.469Z,17.42
2024-04-23T13:34:03.050Z,17.38
2024-04-23T13:35:05.897Z,17.34
2024-04-23T13:36:10.392Z,17.35
2024-04-23T13:37:12.837Z,17.29
2024-04-23T13:38:15.081Z,17.29
2024-04-23T13:39:17.562Z,17.29
2024-04-23T13:40:20.467Z,17.29
2024-04-23T13:41:22.726Z,17.28
2024-04-23T13:42:25.196Z,17.30
2024-04-23T13:43:27.631Z,17.27
2024-04-23T13:44:30.144Z,17.25
2024-04-23T13:45:32.294Z,17.17
2024-04-23T13:46:34.607Z,17.16
2024-04-23T13:47:38.433Z,17.19
2024-04-23T13:48:40.932Z,17.20
2024-04-23T13:49:43.382Z,17.19
2024-04-23T13:50:45.851Z,17.19
2024-04-23T13:51:47.909Z,17.19
2024-04-23T13:52:50.248Z,17.19